Vaaraa aiheuttavia sääilmiöitä ei ole odotettavissa.    Ei varoituksia

Webkamera Lisätietoa Webcam


Yksityisiä sääasemia lähellä:

Sääasema Juupajoki

Sääasema Orivesi

Sääasema Muurame

Sääasema Jyväskylä

Sääasema Vihtavuori


Löydät sääaseman tiedot myös:

Finland Weather Exchange

European Weather Network

Weather Underground

AWEKAS

Windy.com



Säätiedot lähimmiltä METAR asemilta

   
EFHA - Halli (Fin-Afb), Finland
Etäisyys asemalta: Kaakko 25 km
Päivitetty: 18.09.2019 17:50
Selkeää  
Selkeää  
   Tuuli: Pohjoinen 3.6 m/s
Tuuli: Pohjoinen 3.6 m/s
Lämpötila: 8°C
Tuulen hyytävyys: 6°C
Kastepiste: 2°C
Kosteus: 66%
Ilmanpaine: 1008 hPa
Näkyvyys: Enemmän kuin 10 km
Pilvitiedot: Selkeää
EFHA 181450Z AUTO 01007KT CAVOK 08/02 Q1008
EFJY - Jyvaskyla (Mil/Civ), Finland
Etäisyys asemalta: Koillinen 75 km
Päivitetty: 18.09.2019 18:20
Lähialueella sadekuuroja, Puolipilvistä  
Lähialueella sadekuuroja, Puolipilvistä  
   Tuuli: Vaihtelee 0.5 m/s
Tuuli: Vaihtelee 0.5 m/s
Lämpötila: 6°C
Kastepiste: 3°C
Kosteus: 81%
Ilmanpaine: 1008 hPa
Pilvisyys: Puolipilvistä
Näkyvyys: Enemmän kuin 10 km
Pilvitiedot: Vähäistä pilvisyyttä 1128 m,
Puolipilvistä 2164 m,
Ukkosta
EFJY 181520Z AUTO VRB01KT 9999 VCSH FEW037 SCT071 //////CB 06/03 Q1008
EFTP - Tampere/Pirkkala, Finland
Etäisyys asemalta: Lounas 81 km
Päivitetty: 18.09.2019 18:20
Selkeää  
Selkeää  
   Tuuli: Pohjoisluode 3.1 m/s
Tuuli: Pohjoisluode 3.1 m/s
Lämpötila: 9°C
Tuulen hyytävyys: 7°C
Kastepiste: 2°C
Kosteus: 62%
Ilmanpaine: 1009 hPa
Näkyvyys: Enemmän kuin 10 km
Pilvitiedot: Selkeää
EFTP 181520Z AUTO 34006KT CAVOK 09/02 Q1009
EFSI - Seinajoki-Ilmajoki, Finland
Etäisyys asemalta: Luode 114 km
Päivitetty: 18.09.2019 18:20
Vähäistä pilvisyyttä  
Vähäistä pilvisyyttä  
   Tuuli: Pohjoinen 2.1 m/s
Tuuli: Pohjoinen 2.1 m/s
Lämpötila: 9°C
Tuulen hyytävyys: 8°C
Kastepiste: 0°C
Kosteus: 54%
Ilmanpaine: 1009 hPa
Pilvisyys: Vähäistä pilvisyyttä
Näkyvyys: Enemmän kuin 10 km
Pilvitiedot: Vähäistä pilvisyyttä 1494 m
EFSI 181520Z AUTO 35004KT 9999 FEW049 09/M00 Q1009
EFMI - Mikkeli, Finland
Etäisyys asemalta: Itäkaakko 147 km
Päivitetty: 18.09.2019 18:20
Selkeää  
Selkeää  
   Tuuli: Luode 1 m/s
Tuuli: Luode 1 m/s
Lämpötila: 7°C
Kastepiste: 1°C
Kosteus: 66%
Ilmanpaine: 1008 hPa
Näkyvyys: Enemmän kuin 10 km
Pilvitiedot: Selkeää
EFMI 181520Z AUTO 31002KT CAVOK 07/01 Q1008
EFPO - Pori (Mil/Civ), Finland
Etäisyys asemalta: Länsilounas 154 km
Päivitetty: 18.09.2019 18:20
Melkein pilvistä  
Melkein pilvistä  
   Tuuli: Pohjoinen 3.1 m/s
Tuuli: Pohjoinen 3.1 m/s
Lämpötila: 11°C
Kastepiste: 2°C
Kosteus: 54%
Ilmanpaine: 1009 hPa
Pilvisyys: Melkein pilvistä
Näkyvyys: Enemmän kuin 10 km
Pilvitiedot: Vähäistä pilvisyyttä 1280 m,
Melkein pilvistä 1646 m
EFPO 181520Z AUTO 36006KT 9999 FEW042/// BKN054/// 11/02 Q1009
EFUT - Utti (Fin-Afb), Finland
Etäisyys asemalta: Kaakko 180 km
Päivitetty: 18.09.2019 18:20
Selkeää  
Selkeää  
   Tuuli: Pohjoinen 3.1 m/s
Tuuli: Pohjoinen 3.1 m/s
Lämpötila: 8°C
Tuulen hyytävyys: 6°C
Kastepiste: 2°C
Kosteus: 66%
Ilmanpaine: 1007 hPa
Näkyvyys: Enemmän kuin 10 km
Pilvitiedot: Selkeää
EFUT 181520Z AUTO 36006KT 320V030 CAVOK 08/02 Q1007
EFVA - Vaasa, Finland
Etäisyys asemalta: Luode 180 km
Päivitetty: 18.09.2019 18:20
Selkeää  
Selkeää  
   Tuuli: Pohjoinen 2.6 m/s
Tuuli: Pohjoinen 2.6 m/s
Lämpötila: 10°C
Tuulen hyytävyys: 9°C
Kastepiste: 3°C
Kosteus: 62%
Ilmanpaine: 1010 hPa
Näkyvyys: Enemmän kuin 10 km
Pilvitiedot: Selkeää
EFVA 181520Z AUTO 01005KT CAVOK 10/03 Q1010
EFHK - Helsinki/Vantaa, Finland
Etäisyys asemalta: Etelä 191 km
Päivitetty: 18.09.2019 18:20
Lähialueella sadekuuroja, Puolipilvistä  
Lähialueella sadekuuroja, Puolipilvistä  
   Tuuli: Pohjoisluode 4.6 m/s
Tuuli: Pohjoisluode 4.6 m/s
Lämpötila: 9°C
Tuulen hyytävyys: 7°C
Kastepiste: 2°C
Kosteus: 62%
Ilmanpaine: 1007 hPa
Pilvisyys: Puolipilvistä
Näkyvyys: Enemmän kuin 10 km
Pilvitiedot: Vähäistä pilvisyyttä 914 m,
Puolipilvistä 1372 m
EFHK 181520Z 34009KT 310V020 9999 VCSH FEW030CB SCT045 09/02 Q1007 TEMPO SCT045

Alkuperäinen skripti  Saratoga-weather.org Sovitettu myös templatelle  Weerstation Leuven

Laitteet joita käytämme:

Sääasema
Davis VP2

Sääasemaohjelma
Cumulus

Sääaseman palvelin
HP ProBook 6460b

Palveluntarjoaja
Radicenter

Davis VP2

Cumulus

HP ProBook 6460b

Radicenter




Flag Counter Cumulus Top Weather Sites